Time;durP1;ratioP1;P1;durP2;ratioP2;P2;SDS_P1;SDS_P2;PMS_P1;PMS_P2;Temp;Humidity;BMP_temperature;BMP_pressure;BME280_temperature;BME280_humidity;BME280_pressure;Samples;Min_cycle;Max_cycle;Signal;HPM_P1;HPM_P2
2022/06/22 00:01:42;;;;;;;3.55;1.90;;;;;;;;;;8353354;28;20041;-60
2022/06/22 00:05:44;;;;;;;3.22;1.67;;;;;;;;;;8356023;28;20069;-60
2022/06/22 00:09:46;;;;;;;4.18;1.58;;;;;;;;;;8353986;28;20025;-60
2022/06/22 00:13:48;;;;;;;6.30;1.70;;;;;;;;;;8355108;28;20028;-60
2022/06/22 00:17:49;;;;;;;3.55;1.77;;;;;;;;;;8354204;28;20036;-59
2022/06/22 00:21:49;;;;;;;3.25;1.70;;;;;;;;;;8352060;28;20033;-60
2022/06/22 00:25:50;;;;;;;2.92;1.65;;;;;;;;;;8355707;28;20028;-60
2022/06/22 00:30:01;;;;;;;2.45;1.73;;;;;;;;;;8356010;28;20098;-61
2022/06/22 00:34:06;;;;;;;3.22;1.80;;;;;;;;;;8352954;28;20043;-61
2022/06/22 00:38:06;;;;;;;1.77;1.50;;;;;;;;;;8353562;28;20043;-60
2022/06/22 00:42:18;;;;;;;3.53;1.90;;;;;;;;;;8348018;28;20024;-62
2022/06/22 00:46:20;;;;;;;2.08;1.50;;;;;;;;;;8352154;28;20117;-61
2022/06/22 00:50:23;;;;;;;2.35;1.55;;;;;;;;;;8354285;28;20781;-61
2022/06/22 00:54:25;;;;;;;2.87;1.93;;;;;;;;;;8354606;28;20963;-60
2022/06/22 00:58:46;;;;;;;2.58;1.60;;;;;;;;;;8353106;28;20020;-61
2022/06/22 01:02:55;;;;;;;4.70;1.65;;;;;;;;;;8352135;28;20037;-60
2022/06/22 01:07:16;;;;;;;2.00;1.80;;;;;;;;;;8352720;28;20021;-61
2022/06/22 01:15:49;;;;;;;2.88;1.65;;;;;;;;;;8352692;28;20047;-61
2022/06/22 01:19:53;;;;;;;2.53;1.60;;;;;;;;;;8355606;28;20079;-61
2022/06/22 01:23:54;;;;;;;3.28;1.60;;;;;;;;;;8352293;28;20052;-61
2022/06/22 01:27:54;;;;;;;2.53;1.60;;;;;;;;;;8352682;28;20033;-60
2022/06/22 01:32:01;;;;;;;4.97;2.00;;;;;;;;;;8351217;28;20043;-62
2022/06/22 01:36:05;;;;;;;1.95;1.75;;;;;;;;;;8350673;28;20396;-60
2022/06/22 01:40:19;;;;;;;1.90;1.75;;;;;;;;;;8351136;28;20102;-61
2022/06/22 01:44:19;;;;;;;3.35;1.58;;;;;;;;;;8353360;28;20025;-66
2022/06/22 01:48:40;;;;;;;4.88;1.50;;;;;;;;;;8352633;28;20094;-61
2022/06/22 01:52:55;;;;;;;2.15;1.60;;;;;;;;;;8354879;28;20044;-60
2022/06/22 01:56:59;;;;;;;4.80;1.80;;;;;;;;;;8360750;28;20773;-60
2022/06/22 02:01:03;;;;;;;2.20;1.60;;;;;;;;;;8358230;28;20040;-60
2022/06/22 02:05:03;;;;;;;4.70;1.77;;;;;;;;;;8359674;28;20020;-60
2022/06/22 02:09:08;;;;;;;1.63;1.43;;;;;;;;;;8358407;28;20030;-60
2022/06/22 02:13:08;;;;;;;2.03;1.77;;;;;;;;;;8359510;28;20592;-60
2022/06/22 02:17:10;;;;;;;3.13;1.80;;;;;;;;;;8356313;28;20050;-60
2022/06/22 02:21:31;;;;;;;3.13;1.58;;;;;;;;;;8355462;28;20024;-61
2022/06/22 02:25:33;;;;;;;4.32;1.40;;;;;;;;;;8348746;28;20135;-60
2022/06/22 02:29:33;;;;;;;2.85;1.60;;;;;;;;;;8359067;28;20024;-60
2022/06/22 02:33:35;;;;;;;3.47;1.63;;;;;;;;;;8356528;28;20040;-60
2022/06/22 02:37:44;;;;;;;1.83;1.30;;;;;;;;;;8358551;28;20102;-60
2022/06/22 02:46:03;;;;;;;4.15;1.45;;;;;;;;;;8357839;28;20560;-60
2022/06/22 02:50:09;;;;;;;5.97;1.60;;;;;;;;;;8357729;28;20020;-60
2022/06/22 02:54:17;;;;;;;2.83;1.27;;;;;;;;;;8355890;28;20031;-61
2022/06/22 02:58:23;;;;;;;2.05;1.40;;;;;;;;;;8355906;28;20036;-60
2022/06/22 03:02:24;;;;;;;2.30;1.20;;;;;;;;;;8356011;28;20036;-60
2022/06/22 03:06:26;;;;;;;4.72;1.65;;;;;;;;;;8353054;28;20020;-60
2022/06/22 03:10:29;;;;;;;4.20;1.48;;;;;;;;;;8354863;28;20011;-60
2022/06/22 03:14:37;;;;;;;2.42;1.42;;;;;;;;;;8356363;28;20020;-60
2022/06/22 03:18:40;;;;;;;3.58;1.60;;;;;;;;;;8354990;28;20033;-61
2022/06/22 03:22:46;;;;;;;2.75;1.48;;;;;;;;;;8357451;28;20032;-61
2022/06/22 03:26:55;;;;;;;2.08;1.50;;;;;;;;;;8354260;28;20031;-60
2022/06/22 03:30:59;;;;;;;2.50;1.60;;;;;;;;;;8356580;28;20041;-60
2022/06/22 03:35:22;;;;;;;1.52;1.38;;;;;;;;;;8351868;28;20137;-59
2022/06/22 03:39:25;;;;;;;1.92;1.50;;;;;;;;;;8347717;28;20900;-60
2022/06/22 03:43:30;;;;;;;3.83;1.40;;;;;;;;;;8349963;28;20111;-60
2022/06/22 03:47:39;;;;;;;3.30;1.52;;;;;;;;;;8349906;28;20028;-60
2022/06/22 03:51:51;;;;;;;2.00;1.35;;;;;;;;;;8351755;28;20032;-60
2022/06/22 03:55:54;;;;;;;3.28;1.40;;;;;;;;;;8349760;28;20600;-59
2022/06/22 03:59:55;;;;;;;1.58;1.40;;;;;;;;;;8348476;28;20574;-60
2022/06/22 04:03:55;;;;;;;1.63;1.30;;;;;;;;;;8352036;28;20561;-60
2022/06/22 04:07:56;;;;;;;1.80;1.30;;;;;;;;;;8350057;28;20019;-60
2022/06/22 04:12:02;;;;;;;1.50;1.40;;;;;;;;;;8350827;28;20028;-61
2022/06/22 04:16:05;;;;;;;4.10;1.60;;;;;;;;;;8344393;28;20041;-59
2022/06/22 04:20:24;;;;;;;1.90;1.60;;;;;;;;;;8351612;28;20051;-60
2022/06/22 04:24:30;;;;;;;2.70;1.60;;;;;;;;;;8346772;28;20758;-59
2022/06/22 04:28:32;;;;;;;1.95;1.40;;;;;;;;;;8351367;28;20023;-59
2022/06/22 04:32:51;;;;;;;1.88;1.40;;;;;;;;;;8349321;28;20532;-60
2022/06/22 04:36:54;;;;;;;2.78;1.63;;;;;;;;;;8349770;28;20035;-60
2022/06/22 04:41:04;;;;;;;2.97;1.55;;;;;;;;;;8349160;28;20033;-60
2022/06/22 04:45:04;;;;;;;2.17;1.40;;;;;;;;;;8346167;28;20259;-60
2022/06/22 04:49:23;;;;;;;3.47;1.58;;;;;;;;;;8344794;28;20023;-60
2022/06/22 04:53:34;;;;;;;1.45;1.35;;;;;;;;;;8352339;28;20028;-60
2022/06/22 04:57:37;;;;;;;3.42;1.40;;;;;;;;;;8354399;28;20085;-60
2022/06/22 05:01:41;;;;;;;2.08;1.48;;;;;;;;;;8350843;28;20037;-60
2022/06/22 05:05:41;;;;;;;3.03;1.50;;;;;;;;;;8352765;28;20025;-60
2022/06/22 05:09:55;;;;;;;5.78;1.30;;;;;;;;;;8351919;28;20028;-60
2022/06/22 05:13:56;;;;;;;3.92;1.50;;;;;;;;;;8354113;28;20127;-61
2022/06/22 05:17:58;;;;;;;4.50;1.60;;;;;;;;;;8353400;28;20051;-60
2022/06/22 05:21:58;;;;;;;2.13;1.30;;;;;;;;;;8350687;28;20025;-60
2022/06/22 05:26:01;;;;;;;2.22;1.30;;;;;;;;;;8352349;28;20027;-60
2022/06/22 05:30:05;;;;;;;2.05;1.05;;;;;;;;;;8359060;28;20010;-60
2022/06/22 05:34:14;;;;;;;1.88;1.15;;;;;;;;;;8356643;28;20044;-61
2022/06/22 05:38:17;;;;;;;2.67;1.40;;;;;;;;;;8355329;28;20024;-60
2022/06/22 05:42:18;;;;;;;2.75;1.48;;;;;;;;;;8356608;28;20029;-62
2022/06/22 05:46:18;;;;;;;2.00;1.30;;;;;;;;;;8352095;28;20141;-60
2022/06/22 05:50:25;;;;;;;2.28;1.25;;;;;;;;;;8355843;28;20612;-60
2022/06/22 05:54:45;;;;;;;4.10;1.40;;;;;;;;;;8356674;28;20691;-61
2022/06/22 05:59:00;;;;;;;2.13;1.30;;;;;;;;;;8357605;28;20166;-60
2022/06/22 06:03:03;;;;;;;5.15;1.40;;;;;;;;;;8354958;28;20137;-61
2022/06/22 06:07:03;;;;;;;;;;;;;;;;;;8357888;28;20380;-60
2022/06/22 06:11:04;;;;;;;1.98;1.23;;;;;;;;;;8357035;28;19956;-60
2022/06/22 06:15:05;;;;;;;2.72;1.00;;;;;;;;;;8357837;28;20811;-61
2022/06/22 06:19:07;;;;;;;1.35;1.00;;;;;;;;;;8355679;28;20248;-60
2022/06/22 06:23:16;;;;;;;2.45;1.00;;;;;;;;;;8357011;28;20028;-61
2022/06/22 06:27:34;;;;;;;1.23;1.00;;;;;;;;;;8356166;28;20639;-61
2022/06/22 06:31:37;;;;;;;3.15;1.48;;;;;;;;;;8357223;28;20551;-60
2022/06/22 06:35:41;;;;;;;1.33;1.00;;;;;;;;;;8358131;28;20024;-60
2022/06/22 06:39:43;;;;;;;2.75;1.13;;;;;;;;;;8354569;28;20028;-61
2022/06/22 06:43:54;;;;;;;2.38;1.10;;;;;;;;;;8357136;28;20056;-60
2022/06/22 06:47:58;;;;;;;2.63;1.10;;;;;;;;;;8354717;28;20029;-61
2022/06/22 06:52:01;;;;;;;1.60;1.17;;;;;;;;;;8353272;28;20024;-61
2022/06/22 06:56:09;;;;;;;3.63;1.20;;;;;;;;;;8356877;28;20060;-60
2022/06/22 07:00:10;;;;;;;2.20;1.30;;;;;;;;;;8350773;28;20020;-61
2022/06/22 07:04:16;;;;;;;2.83;1.30;;;;;;;;;;8354831;28;20035;-60
2022/06/22 07:08:18;;;;;;;4.20;1.10;;;;;;;;;;8356367;28;20021;-60
2022/06/22 07:12:37;;;;;;;2.70;1.10;;;;;;;;;;8352426;28;20024;-60
2022/06/22 07:16:38;;;;;;;3.25;1.15;;;;;;;;;;8354790;28;20041;-60
2022/06/22 07:20:40;;;;;;;2.30;1.15;;;;;;;;;;8353745;28;20297;-60
2022/06/22 07:24:43;;;;;;;1.35;1.20;;;;;;;;;;8352303;28;20031;-60
2022/06/22 07:28:49;;;;;;;1.42;1.08;;;;;;;;;;8353459;28;20028;-60
2022/06/22 07:33:08;;;;;;;8.18;1.30;;;;;;;;;;8354844;28;20036;-60
2022/06/22 07:37:14;;;;;;;1.85;1.10;;;;;;;;;;8354070;28;20024;-60
2022/06/22 07:41:18;;;;;;;2.60;1.20;;;;;;;;;;8355042;28;20020;-60
2022/06/22 07:45:19;;;;;;;1.75;1.00;;;;;;;;;;8350676;28;20692;-60
2022/06/22 07:49:23;;;;;;;2.60;1.00;;;;;;;;;;8355514;28;20020;-60
2022/06/22 07:53:29;;;;;;;1.73;1.10;;;;;;;;;;8354261;28;20028;-59
2022/06/22 07:57:57;;;;;;;2.95;0.90;;;;;;;;;;8353882;28;20477;-60
2022/06/22 08:01:59;;;;;;;8.18;1.20;;;;;;;;;;8349676;28;20662;-59
2022/06/22 08:06:05;;;;;;;2.60;1.00;;;;;;;;;;8354426;28;20385;-59
2022/06/22 08:10:12;;;;;;;1.52;1.00;;;;;;;;;;8352569;28;20048;-59
2022/06/22 08:14:18;;;;;;;2.65;1.10;;;;;;;;;;8354344;28;20599;-60
2022/06/22 08:18:18;;;;;;;1.60;0.90;;;;;;;;;;8352593;28;20072;-59
2022/06/22 08:22:19;;;;;;;1.98;1.10;;;;;;;;;;8352978;28;20028;-60
2022/06/22 08:26:22;;;;;;;1.10;1.00;;;;;;;;;;8353944;28;20101;-60
2022/06/22 08:30:22;;;;;;;1.67;1.10;;;;;;;;;;8353192;28;20037;-59
2022/06/22 08:34:32;;;;;;;2.75;1.38;;;;;;;;;;8353622;28;20106;-59
2022/06/22 08:38:59;;;;;;;6.18;1.20;;;;;;;;;;8353961;28;20055;-59
2022/06/22 08:43:17;;;;;;;4.25;1.40;;;;;;;;;;8336148;28;20029;-59
2022/06/22 08:47:21;;;;;;;3.28;1.30;;;;;;;;;;8354468;28;20029;-60
2022/06/22 08:51:22;;;;;;;3.95;1.20;;;;;;;;;;8351752;28;20028;-59
2022/06/22 08:55:41;;;;;;;2.58;1.10;;;;;;;;;;8351912;28;20020;-59
2022/06/22 09:00:05;;;;;;;1.92;1.02;;;;;;;;;;8354407;28;20511;-60
2022/06/22 09:04:08;;;;;;;4.43;1.15;;;;;;;;;;8339238;28;20100;-59
2022/06/22 09:08:11;;;;;;;2.42;1.17;;;;;;;;;;8361310;28;20016;-60
2022/06/22 09:12:20;;;;;;;4.65;1.27;;;;;;;;;;8359915;28;20205;-59
2022/06/22 09:16:26;;;;;;;6.53;1.20;;;;;;;;;;8359825;28;20564;-60
2022/06/22 09:20:39;;;;;;;2.35;1.00;;;;;;;;;;8358765;28;20474;-59
2022/06/22 09:24:58;;;;;;;3.15;1.30;;;;;;;;;;8358371;28;20017;-59
2022/06/22 09:29:00;;;;;;;1.63;1.20;;;;;;;;;;8359368;28;20457;-60
2022/06/22 09:33:09;;;;;;;2.50;1.00;;;;;;;;;;8357027;28;20095;-61
2022/06/22 09:37:10;;;;;;;1.70;1.08;;;;;;;;;;8358227;28;20743;-59
2022/06/22 09:41:28;;;;;;;3.58;1.20;;;;;;;;;;8359369;28;20029;-59
2022/06/22 09:45:47;;;;;;;5.82;1.20;;;;;;;;;;8355671;28;20044;-59
2022/06/22 09:50:05;;;;;;;5.80;1.30;;;;;;;;;;8358610;28;20020;-61
2022/06/22 09:54:08;;;;;;;2.97;1.33;;;;;;;;;;8357461;28;20025;-59
2022/06/22 09:58:27;;;;;;;2.72;1.30;;;;;;;;;;8357075;28;20047;-59
2022/06/22 10:02:49;;;;;;;2.03;1.20;;;;;;;;;;8353768;28;20052;-59
2022/06/22 10:07:08;;;;;;;1.48;1.08;;;;;;;;;;8358552;28;20036;-59
2022/06/22 10:11:26;;;;;;;2.13;1.30;;;;;;;;;;8356505;28;20024;-59
2022/06/22 10:15:44;;;;;;;4.30;1.20;;;;;;;;;;8355633;28;20036;-59
2022/06/22 10:19:48;;;;;;;6.60;1.33;;;;;;;;;;8358134;28;20070;-60
2022/06/22 10:23:54;;;;;;;6.72;1.33;;;;;;;;;;8358090;28;20035;-59
2022/06/22 10:27:54;;;;;;;2.83;1.17;;;;;;;;;;8357741;28;20024;-60
2022/06/22 10:32:09;;;;;;;5.57;1.10;;;;;;;;;;8354288;28;20041;-59
2022/06/22 10:36:18;;;;;;;3.10;1.05;;;;;;;;;;8358199;28;20013;-59
2022/06/22 10:45:11;;;;;;;5.28;1.27;;;;;;;;;;8357793;28;20102;-59
2022/06/22 10:49:28;;;;;;;4.05;1.15;;;;;;;;;;8355073;28;20132;-60
2022/06/22 10:53:47;;;;;;;8.43;1.00;;;;;;;;;;8353250;28;20031;-59
2022/06/22 10:57:50;;;;;;;4.60;1.23;;;;;;;;;;8356152;28;20060;-59
2022/06/22 11:02:02;;;;;;;1.10;1.00;;;;;;;;;;8352895;28;20041;-60
2022/06/22 11:06:28;;;;;;;2.23;1.20;;;;;;;;;;8352195;28;20020;-59
2022/06/22 11:10:50;;;;;;;4.60;1.30;;;;;;;;;;8355450;28;20016;-60
2022/06/22 11:14:54;;;;;;;1.88;1.10;;;;;;;;;;8354798;28;20028;-60
2022/06/22 11:19:17;;;;;;;5.03;1.25;;;;;;;;;;8351486;28;20089;-59
2022/06/22 11:23:24;;;;;;;6.07;1.10;;;;;;;;;;8353897;28;20552;-59
2022/06/22 11:31:56;;;;;;;3.50;1.37;;;;;;;;;;8352770;28;20178;-59
2022/06/22 11:36:08;;;;;;;5.07;1.40;;;;;;;;;;8355824;28;20283;-59
2022/06/22 11:40:08;;;;;;;;;;;;;;;;;;8355532;28;20031;-59
2022/06/22 11:44:13;;;;;;;3.25;1.20;;;;;;;;;;8357849;28;20454;-60
2022/06/22 11:48:32;;;;;;;5.80;1.60;;;;;;;;;;8354527;28;20033;-59
2022/06/22 11:52:35;;;;;;;5.90;1.45;;;;;;;;;;8354035;28;20025;-59
2022/06/22 11:56:54;;;;;;;5.65;1.40;;;;;;;;;;8348018;28;20028;-59
2022/06/22 12:00:54;;;;;;;4.63;1.42;;;;;;;;;;8348741;28;20040;-59
2022/06/22 12:05:00;;;;;;;6.80;1.40;;;;;;;;;;8355960;28;20050;-59
2022/06/22 12:09:01;;;;;;;8.40;1.60;;;;;;;;;;8352264;28;20386;-60
2022/06/22 12:13:07;;;;;;;4.70;1.80;;;;;;;;;;8353944;28;20024;-59
2022/06/22 12:17:30;;;;;;;7.03;1.45;;;;;;;;;;8352925;28;20033;-59
2022/06/22 12:21:49;;;;;;;6.15;1.70;;;;;;;;;;8351907;28;20035;-59
2022/06/22 12:26:12;;;;;;;7.97;1.50;;;;;;;;;;8353743;28;20032;-59
2022/06/22 12:30:13;;;;;;;6.53;1.50;;;;;;;;;;8352350;28;20099;-59
2022/06/22 12:34:33;;;;;;;5.13;1.48;;;;;;;;;;8355125;28;20029;-61
2022/06/22 12:38:47;;;;;;;6.65;1.90;;;;;;;;;;8353991;28;20110;-59
2022/06/22 12:42:54;;;;;;;3.90;1.67;;;;;;;;;;8350889;28;20139;-59
2022/06/22 12:47:06;;;;;;;6.10;1.70;;;;;;;;;;8354953;28;20041;-60
2022/06/22 12:51:06;;;;;;;;;;;;;;;;;;8352831;28;20040;-59
2022/06/22 12:55:28;;;;;;;3.35;1.80;;;;;;;;;;8351284;28;19912;-59
2022/06/22 12:59:36;;;;;;;3.95;1.60;;;;;;;;;;8354650;28;20512;-59
2022/06/22 13:03:53;;;;;;;9.13;2.05;;;;;;;;;;8351660;28;20151;-60
2022/06/22 13:07:57;;;;;;;5.45;1.70;;;;;;;;;;8348984;28;20142;-59
2022/06/22 13:11:58;;;;;;;4.50;1.90;;;;;;;;;;8348919;28;20016;-59
2022/06/22 13:16:01;;;;;;;4.13;1.80;;;;;;;;;;8344650;28;20845;-60
2022/06/22 13:20:12;;;;;;;4.50;2.03;;;;;;;;;;8347268;28;20021;-59
2022/06/22 13:24:24;;;;;;;5.38;2.33;;;;;;;;;;8346756;28;20546;-59
2022/06/22 13:28:30;;;;;;;3.05;2.30;;;;;;;;;;8344306;28;20028;-60
2022/06/22 13:32:32;;;;;;;5.82;2.00;;;;;;;;;;8346031;28;20071;-60
2022/06/22 13:36:36;;;;;;;6.43;2.40;;;;;;;;;;8349759;28;20029;-60
2022/06/22 13:40:51;;;;;;;4.25;2.30;;;;;;;;;;8350396;28;20570;-60
2022/06/22 13:44:57;;;;;;;5.97;2.08;;;;;;;;;;8350847;28;20040;-60
2022/06/22 13:49:16;;;;;;;3.45;2.20;;;;;;;;;;8348621;28;20037;-65
2022/06/22 13:53:17;;;;;;;7.10;2.70;;;;;;;;;;8354501;28;20020;-60
2022/06/22 13:57:35;;;;;;;7.97;2.67;;;;;;;;;;8354043;28;20036;-61
2022/06/22 14:01:39;;;;;;;8.55;2.63;;;;;;;;;;8348839;28;20056;-60
2022/06/22 14:05:44;;;;;;;5.68;2.60;;;;;;;;;;8351072;28;20028;-60
2022/06/22 14:09:49;;;;;;;14.70;2.80;;;;;;;;;;8353295;28;20127;-59
2022/06/22 14:13:49;;;;;;;8.93;3.15;;;;;;;;;;8355390;28;20039;-59
2022/06/22 14:17:55;;;;;;;11.00;3.10;;;;;;;;;;8354884;28;20036;-59
2022/06/22 14:21:58;;;;;;;7.68;3.08;;;;;;;;;;8351871;28;20025;-60
2022/06/22 14:25:58;;;;;;;7.22;2.85;;;;;;;;;;8354326;28;20021;-59
2022/06/22 14:30:08;;;;;;;9.80;3.17;;;;;;;;;;8353765;28;20500;-59
2022/06/22 14:34:27;;;;;;;7.75;2.70;;;;;;;;;;8354212;28;20635;-59
2022/06/22 14:38:34;;;;;;;10.15;3.28;;;;;;;;;;8352472;28;20033;-59
2022/06/22 14:42:36;;;;;;;8.02;2.95;;;;;;;;;;8351948;28;20067;-59
2022/06/22 14:46:42;;;;;;;11.43;3.30;;;;;;;;;;8352187;28;20032;-59
2022/06/22 14:50:45;;;;;;;8.65;3.65;;;;;;;;;;8346306;28;20761;-60
2022/06/22 14:54:54;;;;;;;6.85;3.15;;;;;;;;;;8350189;28;20025;-60
2022/06/22 14:59:18;;;;;;;8.60;3.30;;;;;;;;;;8353443;28;20502;-60
2022/06/22 15:03:23;;;;;;;13.43;3.90;;;;;;;;;;8349601;28;20519;-60
2022/06/22 15:07:31;;;;;;;9.88;3.38;;;;;;;;;;8352019;28;20028;-60
2022/06/22 15:16:05;;;;;;;8.52;3.25;;;;;;;;;;8350200;28;20410;-60
2022/06/22 15:20:24;;;;;;;9.63;3.65;;;;;;;;;;8351398;28;20378;-60
2022/06/22 15:24:42;;;;;;;7.90;3.30;;;;;;;;;;8351847;28;20025;-60
2022/06/22 15:28:43;;;;;;;9.52;3.22;;;;;;;;;;8352136;28;20035;-60
2022/06/22 15:32:49;;;;;;;11.20;3.63;;;;;;;;;;8351297;28;20028;-60
2022/06/22 15:37:09;;;;;;;9.50;4.07;;;;;;;;;;8349275;28;20548;-60
2022/06/22 15:41:28;;;;;;;10.98;3.17;;;;;;;;;;8349858;28;20521;-60
2022/06/22 15:45:47;;;;;;;12.13;3.65;;;;;;;;;;8351897;28;20115;-60
2022/06/22 15:50:06;;;;;;;14.82;5.85;;;;;;;;;;8351170;28;20060;-60
2022/06/22 15:54:06;;;;;;;11.82;4.05;;;;;;;;;;8351802;28;20386;-60
2022/06/22 15:58:25;;;;;;;13.55;4.13;;;;;;;;;;8347366;28;20043;-60
2022/06/22 16:02:44;;;;;;;12.85;3.85;;;;;;;;;;8349308;28;20033;-60
2022/06/22 16:06:49;;;;;;;10.20;4.00;;;;;;;;;;8349473;28;20023;-60
2022/06/22 16:15:15;;;;;;;11.02;3.92;;;;;;;;;;8350195;28;20107;-60
2022/06/22 16:19:29;;;;;;;14.15;3.90;;;;;;;;;;8349703;28;20040;-60
2022/06/22 16:23:32;;;;;;;9.38;3.88;;;;;;;;;;8350205;28;20030;-61
2022/06/22 16:27:43;;;;;;;10.02;4.15;;;;;;;;;;8352612;28;20297;-60
2022/06/22 16:31:49;;;;;;;11.73;4.80;;;;;;;;;;8347223;28;20046;-61
2022/06/22 16:35:52;;;;;;;11.18;3.60;;;;;;;;;;8349004;28;20102;-61
2022/06/22 16:39:58;;;;;;;12.27;3.95;;;;;;;;;;8349040;28;20605;-60
2022/06/22 16:44:21;;;;;;;10.75;4.05;;;;;;;;;;8347648;28;20720;-60
2022/06/22 16:48:27;;;;;;;7.88;3.15;;;;;;;;;;8349626;28;20040;-60
2022/06/22 16:52:33;;;;;;;12.70;3.50;;;;;;;;;;8349102;28;21179;-59
2022/06/22 16:56:56;;;;;;;9.18;3.30;;;;;;;;;;8348800;28;20028;-59
2022/06/22 17:01:01;;;;;;;11.23;3.83;;;;;;;;;;8340195;28;20063;-59
2022/06/22 17:05:04;;;;;;;10.50;3.38;;;;;;;;;;8347964;28;20032;-60
2022/06/22 17:09:08;;;;;;;9.23;3.10;;;;;;;;;;8352113;28;20048;-60
2022/06/22 17:13:11;;;;;;;10.82;3.80;;;;;;;;;;8348659;28;20048;-59
2022/06/22 17:17:11;;;;;;;10.70;3.90;;;;;;;;;;8347368;28;20853;-59
2022/06/22 17:21:14;;;;;;;9.80;3.50;;;;;;;;;;8348104;28;20029;-59
2022/06/22 17:25:14;;;;;;;;;;;;;;;;;;8353962;28;20559;-59
2022/06/22 17:29:17;;;;;;;11.98;3.90;;;;;;;;;;8355779;28;20007;-60
2022/06/22 17:33:24;;;;;;;12.18;3.50;;;;;;;;;;8355571;28;20058;-59
2022/06/22 17:37:43;;;;;;;15.60;3.67;;;;;;;;;;8354948;28;20760;-60
2022/06/22 17:41:48;;;;;;;11.57;3.22;;;;;;;;;;8355763;28;20025;-60
2022/06/22 17:46:06;;;;;;;10.00;3.22;;;;;;;;;;8355314;28;20345;-60
2022/06/22 17:50:17;;;;;;;14.02;3.53;;;;;;;;;;8354915;28;20078;-60
2022/06/22 17:54:35;;;;;;;8.35;3.00;;;;;;;;;;8353344;28;20115;-60
2022/06/22 17:58:39;;;;;;;11.85;3.25;;;;;;;;;;8354525;28;20093;-60
2022/06/22 18:03:03;;;;;;;7.53;2.90;;;;;;;;;;8353239;28;20037;-61
2022/06/22 18:07:08;;;;;;;8.45;3.20;;;;;;;;;;8349182;28;20074;-60
2022/06/22 18:11:17;;;;;;;8.73;2.88;;;;;;;;;;8355376;28;20591;-60
2022/06/22 18:15:33;;;;;;;14.32;3.35;;;;;;;;;;8353747;28;20017;-59
2022/06/22 18:19:36;;;;;;;10.55;2.80;;;;;;;;;;8353063;28;20028;-60
2022/06/22 18:23:37;;;;;;;;;;;;;;;;;;8353924;28;20021;-60
2022/06/22 18:27:42;;;;;;;7.22;2.97;;;;;;;;;;8354214;28;19908;-60
2022/06/22 18:31:45;;;;;;;9.50;2.90;;;;;;;;;;8354292;28;20036;-61
2022/06/22 18:35:45;;;;;;;10.05;3.50;;;;;;;;;;8349875;28;20031;-60
2022/06/22 18:44:18;;;;;;;9.02;3.85;;;;;;;;;;8353838;28;20040;-60
2022/06/22 18:48:20;;;;;;;13.23;3.53;;;;;;;;;;8354097;28;20986;-60
2022/06/22 18:52:24;;;;;;;9.13;3.42;;;;;;;;;;8353793;28;20607;-61
2022/06/22 18:56:27;;;;;;;8.35;3.30;;;;;;;;;;8349004;28;20463;-60
2022/06/22 19:00:29;;;;;;;9.35;3.17;;;;;;;;;;8349768;28;20044;-60
2022/06/22 19:04:30;;;;;;;7.30;2.90;;;;;;;;;;8350625;28;20664;-60
2022/06/22 19:08:33;;;;;;;8.18;2.92;;;;;;;;;;8351624;28;20020;-60
2022/06/22 19:12:39;;;;;;;8.82;2.92;;;;;;;;;;8352198;28;20444;-60
2022/06/22 19:16:49;;;;;;;12.95;3.60;;;;;;;;;;8348230;28;20045;-59
2022/06/22 19:20:49;;;;;;;10.93;3.50;;;;;;;;;;8350759;28;20055;-61
2022/06/22 19:25:01;;;;;;;8.25;3.25;;;;;;;;;;8353309;28;20385;-60
2022/06/22 19:29:03;;;;;;;8.53;3.70;;;;;;;;;;8350543;28;20047;-60
2022/06/22 19:33:12;;;;;;;8.30;3.50;;;;;;;;;;8350789;28;20707;-60
2022/06/22 19:37:31;;;;;;;11.43;3.47;;;;;;;;;;8351768;28;20028;-60
2022/06/22 19:41:54;;;;;;;8.52;3.42;;;;;;;;;;8350315;28;20024;-60
2022/06/22 19:46:12;;;;;;;8.57;3.30;;;;;;;;;;8347946;28;20407;-61
2022/06/22 19:50:18;;;;;;;6.10;2.97;;;;;;;;;;8347412;28;20370;-61
2022/06/22 19:54:21;;;;;;;10.38;3.72;;;;;;;;;;8350189;28;20024;-60
2022/06/22 19:58:22;;;;;;;9.82;3.80;;;;;;;;;;8343109;28;20036;-61
2022/06/22 20:02:24;;;;;;;8.27;3.72;;;;;;;;;;8348474;28;20024;-60
2022/06/22 20:06:36;;;;;;;9.07;3.40;;;;;;;;;;8350953;28;20066;-60
2022/06/22 20:10:55;;;;;;;9.10;3.35;;;;;;;;;;8351900;28;20025;-60
2022/06/22 20:15:02;;;;;;;6.97;3.30;;;;;;;;;;8347856;28;20072;-60
2022/06/22 20:19:03;;;;;;;7.55;3.22;;;;;;;;;;8350016;28;20036;-60
2022/06/22 20:23:03;;;;;;;10.73;3.78;;;;;;;;;;8348192;28;20027;-60
2022/06/22 20:27:07;;;;;;;6.93;3.50;;;;;;;;;;8349887;28;20560;-60
2022/06/22 20:31:16;;;;;;;6.03;2.95;;;;;;;;;;8347915;28;20170;-61
2022/06/22 20:35:16;;;;;;;8.35;3.63;;;;;;;;;;8349585;28;20028;-60
2022/06/22 20:39:17;;;;;;;8.40;3.00;;;;;;;;;;8347522;28;20094;-60
2022/06/22 20:43:22;;;;;;;5.87;3.10;;;;;;;;;;8348063;28;20037;-61
2022/06/22 20:47:34;;;;;;;9.48;3.70;;;;;;;;;;8346966;28;20568;-61
2022/06/22 20:51:36;;;;;;;7.65;3.13;;;;;;;;;;8349396;28;20027;-60
2022/06/22 20:55:45;;;;;;;8.75;3.30;;;;;;;;;;8347552;28;20116;-60
2022/06/22 20:59:45;;;;;;;9.52;3.45;;;;;;;;;;8347865;28;20028;-60
2022/06/22 21:03:48;;;;;;;11.02;3.85;;;;;;;;;;8347847;28;20040;-60
2022/06/22 21:07:49;;;;;;;;;;;;;;;;;;8343462;28;20099;-61
2022/06/22 21:11:50;;;;;;;6.57;3.60;;;;;;;;;;8347989;28;19919;-61
2022/06/22 21:15:51;;;;;;;7.95;3.78;;;;;;;;;;8346239;28;20039;-60
2022/06/22 21:19:56;;;;;;;7.65;3.58;;;;;;;;;;8347846;28;20016;-61
2022/06/22 21:24:01;;;;;;;7.53;3.60;;;;;;;;;;8345655;28;20028;-60
2022/06/22 21:28:10;;;;;;;5.20;3.20;;;;;;;;;;8348317;28;20025;-60
2022/06/22 21:32:24;;;;;;;5.35;3.30;;;;;;;;;;8351047;28;20029;-60
2022/06/22 21:36:26;;;;;;;5.85;3.22;;;;;;;;;;8350873;28;20059;-62
2022/06/22 21:40:47;;;;;;;8.52;3.45;;;;;;;;;;8350330;28;20117;-60
2022/06/22 21:44:50;;;;;;;7.70;3.45;;;;;;;;;;8350476;28;20064;-61
2022/06/22 21:48:50;;;;;;;7.70;3.90;;;;;;;;;;8350559;28;20457;-60
2022/06/22 21:52:50;;;;;;;8.43;3.70;;;;;;;;;;8354896;28;20378;-60
2022/06/22 21:57:06;;;;;;;8.10;3.83;;;;;;;;;;8350525;28;20733;-61
2022/06/22 22:01:39;;;;;;;8.82;3.53;;;;;;;;;;8350652;28;20897;-60
2022/06/22 22:06:00;;;;;;;5.93;3.28;;;;;;;;;;8318323;28;20037;-61
2022/06/22 22:10:09;;;;;;;5.25;3.10;;;;;;;;;;8355297;28;20020;-60
2022/06/22 22:14:11;;;;;;;8.30;3.58;;;;;;;;;;8355829;28;20119;-60
2022/06/22 22:18:12;;;;;;;7.78;3.22;;;;;;;;;;8354493;28;20040;-60
2022/06/22 22:22:17;;;;;;;8.00;2.83;;;;;;;;;;8354082;28;20055;-60
2022/06/22 22:26:35;;;;;;;5.25;3.17;;;;;;;;;;8356485;28;20544;-60
2022/06/22 22:30:37;;;;;;;6.82;3.28;;;;;;;;;;8356923;28;20025;-60
2022/06/22 22:34:39;;;;;;;7.65;3.50;;;;;;;;;;8355649;28;20788;-60
2022/06/22 22:38:41;;;;;;;9.93;3.67;;;;;;;;;;8355891;28;20017;-61
2022/06/22 22:42:44;;;;;;;7.38;3.28;;;;;;;;;;8357843;28;20558;-61
2022/06/22 22:46:46;;;;;;;10.40;3.80;;;;;;;;;;8354319;28;20155;-60
2022/06/22 22:50:47;;;;;;;6.35;3.50;;;;;;;;;;8355296;28;20108;-61
2022/06/22 22:54:48;;;;;;;6.47;3.83;;;;;;;;;;8357036;28;20040;-61
2022/06/22 22:58:54;;;;;;;7.28;3.30;;;;;;;;;;8358456;28;20035;-61
2022/06/22 23:03:13;;;;;;;7.18;3.47;;;;;;;;;;8352729;28;20925;-61
2022/06/22 23:07:15;;;;;;;6.53;3.65;;;;;;;;;;8357078;28;20021;-60
2022/06/22 23:11:21;;;;;;;8.57;4.00;;;;;;;;;;8356038;28;20029;-61
2022/06/22 23:15:29;;;;;;;6.07;3.80;;;;;;;;;;8356323;28;20498;-60
2022/06/22 23:19:39;;;;;;;10.38;5.07;;;;;;;;;;8355969;28;20401;-60
2022/06/22 23:23:40;;;;;;;7.90;4.13;;;;;;;;;;8355742;28;20025;-60
2022/06/22 23:27:40;;;;;;;6.90;3.85;;;;;;;;;;8356684;28;20031;-60
2022/06/22 23:31:49;;;;;;;8.90;4.38;;;;;;;;;;8353733;28;20036;-60
2022/06/22 23:35:49;;;;;;;10.80;4.95;;;;;;;;;;8355370;28;20508;-59
2022/06/22 23:39:50;;;;;;;6.53;3.83;;;;;;;;;;8354622;28;20165;-60
2022/06/22 23:43:51;;;;;;;9.70;4.30;;;;;;;;;;8355797;28;20024;-61
2022/06/22 23:48:10;;;;;;;9.32;4.35;;;;;;;;;;8354974;28;20771;-60
2022/06/22 23:52:13;;;;;;;7.45;4.00;;;;;;;;;;8354874;28;20087;-60
2022/06/22 23:56:18;;;;;;;10.40;4.07;;;;;;;;;;8355544;28;20036;-60
